LYBE/BEG METAR and TAF weather

Enter ICAO airport designator
Station Type Date Time Source
LYBE METAR 2017/02/26 23:00 UTC NOAA

LYBE 262300Z 16004KT 6000 NSC 08/05 Q1018 NOSIG


Station Type Date Time Source
LYBE Decoded METAR 2017/02/26 23:00 UTC NOAA

Beograd / Surcin, Serbia and Montenegro (LYBE) 44-49N 020-17E 99M
Feb 26, 2017 - 06:00 PM EST / 2017.02.26 2300 UTC
Wind: from the SSE (160 degrees) at 5 MPH (4 KT):0
Visibility: 3 mile(s):0
Temperature: 46 F (8 C)
Dew Point: 41 F (5 C)
Relative Humidity: 81%
Pressure (altimeter): 30.06 in. Hg (1018 hPa)
ob: LYBE 262300Z 16004KT 6000 NSC 08/05 Q1018 NOSIG
cycle: 23

Station Type Date Time Source
LYBE TAF 2017/02/26 18:24 UTC NOAA

TAF TAF LYBE 261700Z 2618/2718 14006KT CAVOK TX16/2713Z TNM00/2703Z
BECMG 2701/2703 3000 BR
TEMPO 2704/2707 1200
BECMG 2708/2709 CAVOK


Example: see airport list